createdAt,value
2023-04-07T00:08:36.784Z,6.56
2023-04-07T00:18:39.390Z,6.23
2023-04-07T00:28:41.608Z,6.10
2023-04-07T00:38:43.967Z,6.15
2023-04-07T00:48:46.378Z,6.25
2023-04-07T00:58:48.781Z,6.23
2023-04-07T01:09:03.326Z,6.16
2023-04-07T01:19:13.742Z,5.77
2023-04-07T01:29:38.218Z,5.73
2023-04-07T01:39:40.853Z,5.83
2023-04-07T01:49:44.488Z,5.93
2023-04-07T01:59:47.523Z,5.94
2023-04-07T02:09:51.896Z,5.92
2023-04-07T02:19:56.835Z,5.85
2023-04-07T02:29:59.097Z,5.71
2023-04-07T02:40:01.846Z,5.66
2023-04-07T02:50:04.914Z,5.53
2023-04-07T03:00:08.098Z,5.47
2023-04-07T03:10:11.553Z,5.44
2023-04-07T03:20:13.907Z,5.36
2023-04-07T03:30:16.575Z,5.32
2023-04-07T03:40:18.943Z,5.21
2023-04-07T03:50:21.518Z,5.13
2023-04-07T04:00:23.850Z,5.09
2023-04-07T04:10:26.399Z,5.09
2023-04-07T04:20:28.732Z,5.14
2023-04-07T04:30:31.788Z,5.12
2023-04-07T04:40:34.105Z,5.18
2023-04-07T04:50:36.693Z,5.25
2023-04-07T05:00:39.120Z,5.37
2023-04-07T05:10:41.818Z,5.42
2023-04-07T05:20:45.203Z,5.41
2023-04-07T05:30:48.869Z,5.65
2023-04-07T05:40:51.212Z,5.91
2023-04-07T05:50:53.411Z,6.02
2023-04-07T06:00:56.197Z,6.19
2023-04-07T06:10:58.522Z,6.42
2023-04-07T06:21:00.924Z,6.55
2023-04-07T06:31:03.526Z,6.74
2023-04-07T06:41:06.623Z,6.90
2023-04-07T06:51:09.179Z,6.90
2023-04-07T07:01:11.623Z,6.69
2023-04-07T07:11:14.187Z,6.58
2023-04-07T07:21:18.814Z,6.47
2023-04-07T07:31:21.257Z,6.42
2023-04-07T07:41:24.255Z,6.17
2023-04-07T07:51:28.478Z,5.97
2023-04-07T08:01:30.953Z,5.80
2023-04-07T08:11:33.594Z,5.66
2023-04-07T08:21:36.311Z,5.58
2023-04-07T08:31:39.151Z,5.57
2023-04-07T08:41:42.846Z,5.67
2023-04-07T08:51:49.862Z,5.74
2023-04-07T09:01:53.112Z,5.70
2023-04-07T09:11:55.927Z,5.76
2023-04-07T09:21:58.532Z,5.87
2023-04-07T09:32:00.946Z,5.91
2023-04-07T09:42:08.231Z,6.26
2023-04-07T09:52:11.452Z,6.62
2023-04-07T10:02:13.885Z,6.89
2023-04-07T10:12:16.544Z,7.30
2023-04-07T10:22:20.179Z,7.63
2023-04-07T10:32:22.661Z,8.14
2023-04-07T10:42:52.216Z,8.84
2023-04-07T10:53:12.763Z,9.17
2023-04-07T11:03:15.240Z,9.32
2023-04-07T11:13:19.031Z,8.93
2023-04-07T11:23:24.254Z,8.74
2023-04-07T11:33:32.535Z,9.16
2023-04-07T11:43:37.023Z,9.32
2023-04-07T11:53:40.094Z,8.85
2023-04-07T12:04:00.496Z,8.63
2023-04-07T12:14:06.992Z,8.86
2023-04-07T12:24:09.562Z,9.40
2023-04-07T12:34:12.071Z,10.03
2023-04-07T12:44:15.234Z,10.27
2023-04-07T12:54:17.597Z,10.25
2023-04-07T13:04:20.104Z,10.56
2023-04-07T13:14:22.840Z,10.52
2023-04-07T13:24:25.649Z,10.20
2023-04-07T13:34:28.414Z,9.61
2023-04-07T13:44:30.903Z,9.41
2023-04-07T13:54:33.786Z,9.65
2023-04-07T14:04:36.960Z,9.22
2023-04-07T14:14:39.473Z,8.69
2023-04-07T14:24:41.927Z,8.48
2023-04-07T14:34:44.435Z,8.54
2023-04-07T14:44:47.758Z,8.73
2023-04-07T14:54:50.107Z,9.01
2023-04-07T15:04:52.891Z,9.14
2023-04-07T15:14:55.785Z,9.60
2023-04-07T15:24:58.472Z,9.82
2023-04-07T15:35:01.277Z,10.26
2023-04-07T15:45:04.026Z,10.62
2023-04-07T15:55:06.785Z,10.58
2023-04-07T16:05:09.719Z,10.64
2023-04-07T16:15:13.386Z,11.94
2023-04-07T16:25:16.957Z,12.02
2023-04-07T16:35:19.859Z,11.43
2023-04-07T16:45:23.868Z,10.81
2023-04-07T16:55:28.138Z,10.20
2023-04-07T17:05:31.433Z,9.65
2023-04-07T17:15:38.745Z,9.27
2023-04-07T17:25:41.948Z,8.96
2023-04-07T17:35:47.916Z,8.64
2023-04-07T17:45:51.153Z,8.21
2023-04-07T17:55:53.964Z,7.72
2023-04-07T18:05:56.635Z,7.18
2023-04-07T18:16:00.796Z,6.68
2023-04-07T18:26:07.217Z,6.29
2023-04-07T18:36:11.178Z,6.01
2023-04-07T18:46:14.683Z,5.79
2023-04-07T18:56:17.953Z,5.57
2023-04-07T19:06:21.538Z,5.33
2023-04-07T19:16:27.748Z,4.99
2023-04-07T19:26:30.735Z,4.97
2023-04-07T19:36:33.905Z,4.98
2023-04-07T19:46:37.213Z,4.79
2023-04-07T19:56:40.557Z,4.46
2023-04-07T20:06:43.850Z,4.27
2023-04-07T20:16:47.287Z,4.08
2023-04-07T20:26:51.757Z,3.95
2023-04-07T20:36:54.774Z,3.97
2023-04-07T20:46:57.767Z,4.16
2023-04-07T20:57:01.112Z,4.33
2023-04-07T21:07:03.884Z,4.46
2023-04-07T21:17:07.419Z,4.57
2023-04-07T21:27:10.317Z,4.62
2023-04-07T21:37:12.872Z,4.70
2023-04-07T21:47:15.731Z,4.77
2023-04-07T21:57:18.791Z,4.83
2023-04-07T22:07:21.655Z,4.87
2023-04-07T22:17:24.223Z,4.90
2023-04-07T22:27:28.266Z,4.92
2023-04-07T22:37:30.728Z,4.97
2023-04-07T22:47:33.097Z,5.03
2023-04-07T22:57:35.872Z,5.08
2023-04-07T23:07:38.311Z,5.12
2023-04-07T23:17:40.644Z,5.13
2023-04-07T23:27:43.312Z,5.15
2023-04-07T23:37:45.594Z,5.13
2023-04-07T23:47:48.224Z,5.12
2023-04-07T23:57:50.876Z,5.08
